createdAt,value
2018-08-22T00:00:49.915Z,986.443
2018-08-22T00:02:49.910Z,986.442
2018-08-22T00:04:50.311Z,986.443
2018-08-22T00:06:50.529Z,986.454
2018-08-22T00:08:50.676Z,986.444
2018-08-22T00:10:50.591Z,986.442
2018-08-22T00:12:50.587Z,986.421
2018-08-22T00:14:49.608Z,986.421
2018-08-22T00:16:49.870Z,986.410
2018-08-22T00:18:50.012Z,986.404
2018-08-22T00:20:50.024Z,986.390
2018-08-22T00:22:50.046Z,986.380
2018-08-22T00:24:50.050Z,986.349
2018-08-22T00:26:50.199Z,986.356
2018-08-22T00:28:50.159Z,986.354
2018-08-22T00:30:50.124Z,986.352
2018-08-22T00:32:50.099Z,986.353
2018-08-22T00:34:50.282Z,986.317
2018-08-22T00:36:50.527Z,986.313
2018-08-22T00:38:49.645Z,986.309
2018-08-22T00:40:50.585Z,986.314
2018-08-22T00:42:50.576Z,986.293
2018-08-22T00:44:50.548Z,986.289
2018-08-22T00:46:49.739Z,986.255
2018-08-22T00:48:49.694Z,986.241
2018-08-22T00:50:49.734Z,986.238
2018-08-22T00:52:49.953Z,986.235
2018-08-22T00:54:49.994Z,986.214
2018-08-22T00:56:50.151Z,986.224
2018-08-22T00:58:50.157Z,986.223
2018-08-22T01:00:50.276Z,986.203
2018-08-22T01:02:50.321Z,986.202
2018-08-22T01:04:49.782Z,986.210
2018-08-22T01:06:49.982Z,986.213
2018-08-22T01:08:49.953Z,986.220
2018-08-22T01:10:49.966Z,986.216
2018-08-22T01:12:49.951Z,986.216
2018-08-22T01:14:49.914Z,986.222
2018-08-22T01:16:50.039Z,986.221
2018-08-22T01:18:50.004Z,986.215
2018-08-22T01:20:50.017Z,986.197
2018-08-22T01:22:50.146Z,986.200
2018-08-22T01:24:50.162Z,986.226
2018-08-22T01:26:50.422Z,986.221
2018-08-22T01:28:50.450Z,986.221
2018-08-22T01:30:49.740Z,986.193
2018-08-22T01:32:49.813Z,986.179
2018-08-22T01:34:50.212Z,986.152
2018-08-22T01:36:50.405Z,986.144
2018-08-22T01:38:50.378Z,986.145
2018-08-22T01:40:50.395Z,986.142
2018-08-22T01:42:50.395Z,986.130
2018-08-22T01:44:50.361Z,986.137
2018-08-22T01:46:50.509Z,986.131
2018-08-22T01:48:50.426Z,986.125
2018-08-22T01:50:50.468Z,986.124
2018-08-22T01:52:50.428Z,986.135
2018-08-22T01:54:50.424Z,986.137
2018-08-22T01:56:49.681Z,986.147
2018-08-22T01:58:49.972Z,986.163
2018-08-22T02:00:50.409Z,986.159
2018-08-22T02:02:50.400Z,986.113
2018-08-22T02:04:49.875Z,986.106
2018-08-22T02:06:49.953Z,986.089
2018-08-22T02:08:50.337Z,986.087
2018-08-22T02:10:50.395Z,986.083
2018-08-22T02:12:50.555Z,986.063
2018-08-22T02:14:50.573Z,986.048
2018-08-22T02:16:49.762Z,986.038
2018-08-22T02:18:49.755Z,986.004
2018-08-22T02:20:49.948Z,986.004
2018-08-22T02:22:49.871Z,985.996
2018-08-22T02:24:49.829Z,986.001
2018-08-22T02:26:49.864Z,986.007
2018-08-22T02:28:49.875Z,985.996
2018-08-22T02:30:49.863Z,985.993
2018-08-22T02:32:49.830Z,985.970
2018-08-22T02:34:50.099Z,985.970
2018-08-22T02:36:50.248Z,985.939
2018-08-22T02:38:50.272Z,985.941
2018-08-22T02:40:50.431Z,985.937
2018-08-22T02:42:50.398Z,985.936
2018-08-22T02:44:50.474Z,985.945
2018-08-22T02:46:50.586Z,985.926
2018-08-22T02:48:50.573Z,985.928
2018-08-22T02:50:49.716Z,985.918
2018-08-22T02:52:49.705Z,985.918
2018-08-22T02:54:49.919Z,985.901
2018-08-22T02:56:50.050Z,985.901
2018-08-22T02:58:50.044Z,985.927
2018-08-22T03:00:50.025Z,985.920
2018-08-22T03:02:50.067Z,985.929
2018-08-22T03:04:50.381Z,985.938
2018-08-22T03:06:49.657Z,985.935
2018-08-22T03:08:49.704Z,985.937
2018-08-22T03:10:49.753Z,985.937
2018-08-22T03:12:49.746Z,985.909
2018-08-22T03:14:49.791Z,985.898
2018-08-22T03:16:50.018Z,985.886
2018-08-22T03:18:49.989Z,985.896
2018-08-22T03:20:50.000Z,985.894
2018-08-22T03:22:49.940Z,985.883
2018-08-22T03:24:49.884Z,985.873
2018-08-22T03:26:49.935Z,985.865
2018-08-22T03:28:49.881Z,985.850
2018-08-22T03:30:49.838Z,985.841
2018-08-22T03:32:49.840Z,985.838
2018-08-22T03:34:50.048Z,985.853
2018-08-22T03:36:50.245Z,985.856
2018-08-22T03:38:50.217Z,985.849
2018-08-22T03:40:50.242Z,985.856
2018-08-22T03:42:50.166Z,985.845
2018-08-22T03:44:50.160Z,985.885
2018-08-22T03:46:50.433Z,985.892
2018-08-22T03:48:50.392Z,985.913
2018-08-22T03:50:50.491Z,985.935
2018-08-22T03:52:50.421Z,985.972
2018-08-22T03:54:50.502Z,985.978
2018-08-22T03:56:49.713Z,985.983
2018-08-22T03:58:49.703Z,985.983
2018-08-22T04:00:49.651Z,985.965
2018-08-22T04:02:50.601Z,985.952
2018-08-22T04:04:49.916Z,985.960
2018-08-22T04:06:49.956Z,985.958
2018-08-22T04:08:49.960Z,985.970
2018-08-22T04:10:49.982Z,985.996
2018-08-22T04:12:50.048Z,986.027
2018-08-22T04:14:50.079Z,986.038
2018-08-22T04:16:50.333Z,986.083
2018-08-22T04:18:50.316Z,986.093
2018-08-22T04:20:50.282Z,986.107
2018-08-22T04:22:50.274Z,986.098
2018-08-22T04:24:50.228Z,986.098
2018-08-22T04:26:49.884Z,986.054
2018-08-22T04:28:49.858Z,986.031
2018-08-22T04:30:50.081Z,986.022
2018-08-22T04:32:50.363Z,986.049
2018-08-22T04:34:49.644Z,986.088
2018-08-22T04:36:49.907Z,986.089
2018-08-22T04:38:49.895Z,986.115
2018-08-22T04:40:49.896Z,986.091
2018-08-22T04:42:49.888Z,986.089
2018-08-22T04:44:50.049Z,986.092
2018-08-22T04:46:50.188Z,986.114
2018-08-22T04:48:50.231Z,986.114
2018-08-22T04:50:50.210Z,986.109
2018-08-22T04:52:50.156Z,986.102
2018-08-22T04:54:50.254Z,986.102
2018-08-22T04:56:50.451Z,986.098
2018-08-22T04:58:50.568Z,986.089
2018-08-22T05:00:50.515Z,986.089
2018-08-22T05:02:50.510Z,986.076
2018-08-22T05:04:50.069Z,986.076
2018-08-22T05:06:50.239Z,986.070
2018-08-22T05:08:50.264Z,986.088
2018-08-22T05:10:50.330Z,986.079
2018-08-22T05:12:50.334Z,986.066
2018-08-22T05:14:50.310Z,986.063
2018-08-22T05:16:49.628Z,986.076
2018-08-22T05:18:50.593Z,986.092
2018-08-22T05:20:49.626Z,986.103
2018-08-22T05:22:49.629Z,986.128
2018-08-22T05:24:49.965Z,986.124
2018-08-22T05:26:50.473Z,986.130
2018-08-22T05:28:50.547Z,986.130
2018-08-22T05:30:50.480Z,986.151
2018-08-22T05:32:50.619Z,986.166
2018-08-22T05:34:50.194Z,986.178
2018-08-22T05:36:50.010Z,986.183
2018-08-22T05:38:49.974Z,986.184
2018-08-22T05:40:49.916Z,986.205
2018-08-22T05:42:49.992Z,986.211
2018-08-22T05:44:49.993Z,986.200
2018-08-22T05:46:50.174Z,986.185
2018-08-22T05:48:50.212Z,986.173
2018-08-22T05:50:50.373Z,986.173
2018-08-22T05:52:50.428Z,986.207
2018-08-22T05:54:50.503Z,986.216
2018-08-22T05:56:49.912Z,986.214
2018-08-22T05:58:49.897Z,986.214
2018-08-22T06:00:49.977Z,986.231
2018-08-22T06:02:50.007Z,986.238
2018-08-22T06:04:50.389Z,986.258
2018-08-22T06:06:49.631Z,986.264
2018-08-22T06:08:49.615Z,986.254
2018-08-22T06:10:49.626Z,986.248
2018-08-22T06:12:49.717Z,986.255
2018-08-22T06:14:49.731Z,986.269
2018-08-22T06:16:50.413Z,986.261
2018-08-22T06:18:49.707Z,986.260
2018-08-22T06:20:49.880Z,986.261
2018-08-22T06:22:49.843Z,986.280
2018-08-22T06:24:49.939Z,986.280
2018-08-22T06:26:50.458Z,986.281
2018-08-22T06:28:50.428Z,986.271
2018-08-22T06:30:50.530Z,986.245
2018-08-22T06:32:50.715Z,986.248
2018-08-22T06:34:50.356Z,986.246
2018-08-22T06:36:50.655Z,986.246
2018-08-22T06:38:49.738Z,986.222
2018-08-22T06:40:49.878Z,986.222
2018-08-22T06:42:49.857Z,986.222
2018-08-22T06:44:49.847Z,986.222
2018-08-22T06:46:50.061Z,986.232
2018-08-22T06:48:50.092Z,986.257
2018-08-22T06:50:50.259Z,986.264
2018-08-22T06:52:50.256Z,986.234
2018-08-22T06:54:50.273Z,986.220
2018-08-22T06:56:50.432Z,986.194
2018-08-22T06:58:50.595Z,986.196
2018-08-22T07:00:49.918Z,986.162
2018-08-22T07:02:49.869Z,986.159
2018-08-22T07:04:50.145Z,986.148
2018-08-22T07:06:50.343Z,986.158
2018-08-22T07:08:50.464Z,986.141
2018-08-22T07:10:50.451Z,986.122
2018-08-22T07:12:50.437Z,986.104
2018-08-22T07:14:50.477Z,986.061
2018-08-22T07:16:49.635Z,986.050
2018-08-22T07:18:49.674Z,986.037
2018-08-22T07:20:49.954Z,986.030
2018-08-22T07:22:50.072Z,986.012
2018-08-22T07:24:50.055Z,985.977
2018-08-22T07:26:50.233Z,985.967
2018-08-22T07:28:50.216Z,985.960
2018-08-22T07:30:50.244Z,985.946
2018-08-22T07:32:50.262Z,985.949
2018-08-22T07:34:49.639Z,985.959
2018-08-22T07:36:49.823Z,985.948
2018-08-22T07:38:49.795Z,985.963
2018-08-22T07:40:49.822Z,985.959
2018-08-22T07:42:49.829Z,985.926
2018-08-22T07:44:49.829Z,985.924
2018-08-22T07:46:49.941Z,985.920
2018-08-22T07:48:49.858Z,985.914
2018-08-22T07:50:49.843Z,985.908
2018-08-22T07:52:50.152Z,985.892
2018-08-22T07:54:50.305Z,985.892
2018-08-22T07:56:49.616Z,985.886
2018-08-22T07:58:49.819Z,985.887
2018-08-22T08:00:49.867Z,985.893
2018-08-22T08:02:49.889Z,985.865
2018-08-22T08:04:50.621Z,985.872
2018-08-22T08:06:50.052Z,985.883
2018-08-22T08:08:50.217Z,985.881
2018-08-22T08:10:50.472Z,985.891
2018-08-22T08:12:49.759Z,985.877
2018-08-22T08:14:49.761Z,985.877
2018-08-22T08:16:50.152Z,985.843
2018-08-22T08:18:50.134Z,985.851
2018-08-22T08:20:50.152Z,985.853
2018-08-22T08:22:50.187Z,985.856
2018-08-22T08:24:50.312Z,985.866
2018-08-22T08:26:50.525Z,985.863
2018-08-22T08:28:49.647Z,985.861
2018-08-22T08:30:49.792Z,985.854
2018-08-22T08:32:49.841Z,985.837
2018-08-22T08:34:50.241Z,985.776
2018-08-22T08:36:50.332Z,985.756
2018-08-22T08:38:50.384Z,985.725
2018-08-22T08:40:50.590Z,985.708
2018-08-22T08:42:50.586Z,985.686
2018-08-22T08:44:49.609Z,985.673
2018-08-22T08:46:49.812Z,985.662
2018-08-22T08:48:49.875Z,985.652
2018-08-22T08:50:49.924Z,985.652
2018-08-22T08:52:49.992Z,985.645
2018-08-22T08:54:50.104Z,985.583
2018-08-22T08:56:50.178Z,985.579
2018-08-22T08:58:50.190Z,985.552
2018-08-22T09:00:50.220Z,985.538
2018-08-22T09:02:50.281Z,985.495
2018-08-22T09:04:49.758Z,985.474
2018-08-22T09:06:49.941Z,985.476
2018-08-22T09:08:50.008Z,985.487
2018-08-22T09:10:50.533Z,985.490
2018-08-22T09:12:49.920Z,985.471
2018-08-22T09:14:49.926Z,985.440
2018-08-22T09:16:50.103Z,985.415
2018-08-22T09:18:50.323Z,985.385
2018-08-22T09:20:50.341Z,985.378
2018-08-22T09:22:50.466Z,985.335
2018-08-22T09:24:50.518Z,985.338
2018-08-22T09:26:49.820Z,985.338
2018-08-22T09:28:49.808Z,985.333
2018-08-22T09:30:49.858Z,985.328
2018-08-22T09:32:50.004Z,985.320
2018-08-22T09:34:50.274Z,985.306
2018-08-22T09:36:50.406Z,985.278
2018-08-22T09:38:50.589Z,985.289
2018-08-22T09:40:50.558Z,985.285
2018-08-22T09:42:49.615Z,985.272
2018-08-22T09:44:49.624Z,985.272
2018-08-22T09:46:50.210Z,985.231
2018-08-22T09:48:49.821Z,985.220
2018-08-22T09:50:50.072Z,985.215
2018-08-22T09:52:50.368Z,985.213
2018-08-22T09:54:50.343Z,985.184
2018-08-22T09:56:50.609Z,985.151
2018-08-22T09:58:49.682Z,985.116
2018-08-22T10:00:50.204Z,985.057
2018-08-22T10:02:50.383Z,985.054
2018-08-22T10:04:49.720Z,985.055
2018-08-22T10:06:50.387Z,985.042
2018-08-22T10:08:50.220Z,985.033
2018-08-22T10:10:50.242Z,984.968
2018-08-22T10:12:50.237Z,984.968
2018-08-22T10:14:50.391Z,984.894
2018-08-22T10:16:49.813Z,984.873
2018-08-22T10:18:49.813Z,984.854
2018-08-22T10:20:49.835Z,984.826
2018-08-22T10:22:49.831Z,984.796
2018-08-22T10:24:49.834Z,984.752
2018-08-22T10:26:49.914Z,984.733
2018-08-22T10:28:49.934Z,984.714
2018-08-22T10:30:49.905Z,984.717
2018-08-22T10:32:50.515Z,984.687
2018-08-22T10:34:50.395Z,984.687
2018-08-22T10:36:49.614Z,984.677
2018-08-22T10:38:49.770Z,984.663
2018-08-22T10:40:49.711Z,984.663
2018-08-22T10:42:49.820Z,984.616
2018-08-22T10:44:49.833Z,984.567
2018-08-22T10:46:50.179Z,984.557
2018-08-22T10:48:50.319Z,984.536
2018-08-22T10:50:50.303Z,984.534
2018-08-22T10:52:50.299Z,984.532
2018-08-22T10:54:50.425Z,984.500
2018-08-22T10:56:49.677Z,984.483
2018-08-22T10:58:49.757Z,984.446
2018-08-22T11:00:49.832Z,984.450
2018-08-22T11:02:49.788Z,984.430
2018-08-22T11:04:50.198Z,984.451
2018-08-22T11:06:50.278Z,984.456
2018-08-22T11:08:50.332Z,984.416
2018-08-22T11:10:50.287Z,984.396
2018-08-22T11:12:50.417Z,984.395
2018-08-22T11:14:50.426Z,984.409
2018-08-22T11:16:50.577Z,984.364
2018-08-22T11:18:49.620Z,984.353
2018-08-22T11:20:50.578Z,984.305
2018-08-22T11:22:49.707Z,984.283
2018-08-22T11:24:49.663Z,984.282
2018-08-22T11:26:49.959Z,984.284
2018-08-22T11:28:49.912Z,984.257
2018-08-22T11:30:49.875Z,984.226
2018-08-22T11:32:50.292Z,984.208
2018-08-22T11:34:49.784Z,984.193
2018-08-22T11:36:49.841Z,984.212
2018-08-22T11:38:49.892Z,984.217
2018-08-22T11:40:50.103Z,984.206
2018-08-22T11:42:50.106Z,984.165
2018-08-22T11:44:50.082Z,984.158
2018-08-22T11:46:50.607Z,984.128
2018-08-22T11:48:50.178Z,984.144
2018-08-22T11:50:50.207Z,984.155
2018-08-22T11:52:50.213Z,984.143
2018-08-22T11:54:50.171Z,984.170
2018-08-22T11:56:50.396Z,984.139
2018-08-22T11:58:50.445Z,984.149
2018-08-22T12:00:50.470Z,984.166
2018-08-22T12:02:50.559Z,984.123
2018-08-22T12:04:49.868Z,984.083
2018-08-22T12:06:49.940Z,984.032
2018-08-22T12:08:49.964Z,984.034
2018-08-22T12:10:50.087Z,984.001
2018-08-22T12:12:50.079Z,983.987
2018-08-22T12:14:50.110Z,983.930
2018-08-22T12:16:50.388Z,983.918
2018-08-22T12:18:50.546Z,983.906
2018-08-22T12:20:49.627Z,983.860
2018-08-22T12:22:50.603Z,983.838
2018-08-22T12:24:50.601Z,983.878
2018-08-22T12:26:49.907Z,983.862
2018-08-22T12:28:49.878Z,983.862
2018-08-22T12:30:50.074Z,983.810
2018-08-22T12:32:50.052Z,983.783
2018-08-22T12:34:50.483Z,983.806
2018-08-22T12:36:49.642Z,983.794
2018-08-22T12:38:49.722Z,983.791
2018-08-22T12:40:49.807Z,983.767
2018-08-22T12:42:49.824Z,983.747
2018-08-22T12:44:49.769Z,983.736
2018-08-22T12:46:50.082Z,983.708
2018-08-22T12:48:50.090Z,983.667
2018-08-22T12:50:50.060Z,983.666
2018-08-22T12:52:50.071Z,983.652
2018-08-22T12:54:50.082Z,983.604
2018-08-22T12:56:50.244Z,983.575
2018-08-22T12:58:50.218Z,983.583
2018-08-22T13:00:50.360Z,983.583
2018-08-22T13:02:50.284Z,983.523
2018-08-22T13:04:49.846Z,983.490
2018-08-22T13:06:50.560Z,983.469
2018-08-22T13:08:50.536Z,983.466
2018-08-22T13:10:50.629Z,983.443
2018-08-22T13:12:49.717Z,983.437
2018-08-22T13:14:49.808Z,983.427
2018-08-22T13:16:50.063Z,983.443
2018-08-22T13:18:49.787Z,983.447
2018-08-22T13:20:49.789Z,983.420
2018-08-22T13:22:49.752Z,983.389
2018-08-22T13:24:50.180Z,983.323
2018-08-22T13:26:49.657Z,983.298
2018-08-22T13:28:49.725Z,983.256
2018-08-22T13:30:49.845Z,983.223
2018-08-22T13:32:49.872Z,983.180
2018-08-22T13:34:50.155Z,983.153
2018-08-22T13:36:50.360Z,983.135
2018-08-22T13:38:50.367Z,983.107
2018-08-22T13:40:50.312Z,983.096
2018-08-22T13:42:50.359Z,983.079
2018-08-22T13:44:50.329Z,983.072
2018-08-22T13:46:50.591Z,983.051
2018-08-22T13:48:49.652Z,983.034
2018-08-22T13:50:49.868Z,982.995
2018-08-22T13:52:50.154Z,982.975
2018-08-22T13:54:50.281Z,982.970
2018-08-22T13:56:50.569Z,982.974
2018-08-22T13:58:49.779Z,983.004
2018-08-22T14:00:49.933Z,982.997
2018-08-22T14:02:49.959Z,982.958
2018-08-22T14:04:50.197Z,982.950
2018-08-22T14:06:49.640Z,982.928
2018-08-22T14:08:49.742Z,982.941
2018-08-22T14:10:49.944Z,982.912
2018-08-22T14:12:50.092Z,982.890
2018-08-22T14:14:50.256Z,982.851
2018-08-22T14:16:49.664Z,982.812
2018-08-22T14:18:49.988Z,982.812
2018-08-22T14:20:50.129Z,982.746
2018-08-22T14:22:50.303Z,982.702
2018-08-22T14:24:50.560Z,982.714
2018-08-22T14:26:49.979Z,982.687
2018-08-22T14:28:50.162Z,982.688
2018-08-22T14:30:50.403Z,982.627
2018-08-22T14:32:50.564Z,982.627
2018-08-22T14:34:50.181Z,982.627
2018-08-22T14:36:50.556Z,982.616
2018-08-22T14:38:49.787Z,982.636
2018-08-22T14:40:49.991Z,982.619
2018-08-22T14:42:50.252Z,982.572
2018-08-22T14:44:50.511Z,982.515
2018-08-22T14:46:50.086Z,982.446
2018-08-22T14:48:50.456Z,982.410
2018-08-22T14:50:50.551Z,982.415
2018-08-22T14:52:49.767Z,982.397
2018-08-22T14:54:49.896Z,982.403
2018-08-22T14:56:50.216Z,982.395
2018-08-22T14:58:50.434Z,982.377
2018-08-22T15:00:49.624Z,982.307
2018-08-22T15:02:50.958Z,982.308
2018-08-22T15:04:50.482Z,982.298
2018-08-22T15:06:49.886Z,982.291
2018-08-22T15:08:50.300Z,982.293
2018-08-22T15:10:50.160Z,982.273
2018-08-22T15:12:50.870Z,982.243
2018-08-22T15:14:50.440Z,982.208
2018-08-22T15:16:49.863Z,982.201
2018-08-22T15:18:49.988Z,982.218
2018-08-22T15:20:50.326Z,982.227
2018-08-22T15:22:50.542Z,982.227
2018-08-22T15:24:50.333Z,982.182
2018-08-22T15:26:49.810Z,982.176
2018-08-22T15:28:49.899Z,982.162
2018-08-22T15:30:50.123Z,982.162
2018-08-22T15:32:50.261Z,982.129
2018-08-22T15:34:49.777Z,982.099
2018-08-22T15:36:50.026Z,982.071
2018-08-22T15:38:50.136Z,982.017
2018-08-22T15:40:50.430Z,981.975
2018-08-22T15:42:49.885Z,981.952
2018-08-22T15:44:50.054Z,981.930
2018-08-22T15:46:50.395Z,981.929
2018-08-22T15:48:50.459Z,981.922
2018-08-22T15:50:49.632Z,981.908
2018-08-22T15:52:49.851Z,981.887
2018-08-22T15:54:50.102Z,981.880
2018-08-22T15:56:50.402Z,981.881
2018-08-22T15:58:49.798Z,981.849
2018-08-22T16:00:50.420Z,981.822
2018-08-22T16:02:50.561Z,981.818
2018-08-22T16:04:50.196Z,981.808
2018-08-22T16:06:49.661Z,981.792
2018-08-22T16:08:50.235Z,981.777
2018-08-22T16:10:49.853Z,981.736
2018-08-22T16:12:50.140Z,981.723
2018-08-22T16:14:50.322Z,981.693
2018-08-22T16:16:49.780Z,981.677
2018-08-22T16:18:49.889Z,981.626
2018-08-22T16:20:50.022Z,981.617
2018-08-22T16:22:50.171Z,981.631
2018-08-22T16:24:50.160Z,981.634
2018-08-22T16:26:50.448Z,981.616
2018-08-22T16:28:50.446Z,981.594
2018-08-22T16:30:57.895Z,981.607
2018-08-22T16:32:49.893Z,981.604
2018-08-22T16:34:50.271Z,981.618
2018-08-22T16:36:50.414Z,981.618
2018-08-22T16:38:50.386Z,981.619
2018-08-22T16:40:50.393Z,981.657
2018-08-22T16:42:50.365Z,981.671
2018-08-22T16:44:50.331Z,981.697
2018-08-22T16:46:50.480Z,981.715
2018-08-22T16:48:50.420Z,981.699
2018-08-22T16:50:50.335Z,981.717
2018-08-22T16:52:50.364Z,981.711
2018-08-22T16:54:50.284Z,981.728
2018-08-22T16:56:50.509Z,981.716
2018-08-22T16:58:50.650Z,981.717
2018-08-22T17:00:50.580Z,981.709
2018-08-22T17:02:50.437Z,981.701
2018-08-22T17:04:49.872Z,981.702
2018-08-22T17:06:50.049Z,981.702
2018-08-22T17:08:50.073Z,981.712
2018-08-22T17:10:50.005Z,981.713
2018-08-22T17:12:50.123Z,981.715
2018-08-22T17:14:50.097Z,981.715
2018-08-22T17:16:50.328Z,981.696
2018-08-22T17:18:50.413Z,981.679
2018-08-22T17:20:50.354Z,981.665
2018-08-22T17:22:50.468Z,981.659
2018-08-22T17:24:50.456Z,981.642
2018-08-22T17:26:49.697Z,981.626
2018-08-22T17:28:49.787Z,981.641
2018-08-22T17:30:49.902Z,981.663
2018-08-22T17:32:49.862Z,981.665
2018-08-22T17:34:50.153Z,981.674
2018-08-22T17:36:50.290Z,981.671
2018-08-22T17:38:50.296Z,981.676
2018-08-22T17:40:50.275Z,981.716
2018-08-22T17:42:50.386Z,981.727
2018-08-22T17:44:50.379Z,981.737
2018-08-22T17:46:49.671Z,981.753
2018-08-22T17:48:49.792Z,981.774
2018-08-22T17:50:49.832Z,981.769
2018-08-22T17:52:49.820Z,981.776
2018-08-22T17:54:49.845Z,981.772
2018-08-22T17:56:50.019Z,981.764
2018-08-22T17:58:50.167Z,981.783
2018-08-22T18:00:50.172Z,981.793
2018-08-22T18:02:50.198Z,981.842
2018-08-22T18:04:50.419Z,981.836
2018-08-22T18:06:50.585Z,981.839
2018-08-22T18:08:49.684Z,981.855
2018-08-22T18:10:49.737Z,981.872
2018-08-22T18:12:49.710Z,981.870
2018-08-22T18:14:49.703Z,981.900
2018-08-22T18:16:49.936Z,981.917
2018-08-22T18:18:49.860Z,981.940
2018-08-22T18:20:49.794Z,981.982
2018-08-22T18:22:49.786Z,981.997
2018-08-22T18:24:49.786Z,982.020
2018-08-22T18:26:50.023Z,982.039
2018-08-22T18:28:49.991Z,982.065
2018-08-22T18:30:50.038Z,982.077
2018-08-22T18:32:50.046Z,982.095
2018-08-22T18:34:50.500Z,982.149
2018-08-22T18:36:49.858Z,982.153
2018-08-22T18:38:49.831Z,982.167
2018-08-22T18:40:49.823Z,982.163
2018-08-22T18:42:49.801Z,982.164
2018-08-22T18:44:50.274Z,982.155
2018-08-22T18:46:50.016Z,982.162
2018-08-22T18:48:50.182Z,982.192
2018-08-22T18:50:50.250Z,982.228
2018-08-22T18:52:50.307Z,982.230
2018-08-22T18:54:50.241Z,982.249
2018-08-22T18:56:50.416Z,982.258
2018-08-22T18:58:50.509Z,982.282
2018-08-22T19:00:50.454Z,982.290
2018-08-22T19:02:50.485Z,982.325
2018-08-22T19:04:49.802Z,982.339
2018-08-22T19:06:50.047Z,982.350
2018-08-22T19:08:49.989Z,982.341
2018-08-22T19:10:49.940Z,982.345
2018-08-22T19:12:50.015Z,982.378
2018-08-22T19:14:50.005Z,982.404
2018-08-22T19:16:50.239Z,982.408
2018-08-22T19:18:50.142Z,982.419
2018-08-22T19:20:50.150Z,982.426
2018-08-22T19:22:50.155Z,982.433
2018-08-22T19:24:50.255Z,982.433
2018-08-22T19:26:49.735Z,982.442
2018-08-22T19:28:49.773Z,982.434
2018-08-22T19:30:49.858Z,982.444
2018-08-22T19:32:49.892Z,982.458
2018-08-22T19:34:50.325Z,982.466
2018-08-22T19:36:50.536Z,982.495
2018-08-22T19:38:50.506Z,982.494
2018-08-22T19:40:50.450Z,982.487
2018-08-22T19:42:50.431Z,982.479
2018-08-22T19:44:50.347Z,982.470
2018-08-22T19:46:50.581Z,982.468
2018-08-22T19:48:50.714Z,982.465
2018-08-22T19:50:49.755Z,982.468
2018-08-22T19:52:49.891Z,982.487
2018-08-22T19:54:49.900Z,982.498
2018-08-22T19:56:49.951Z,982.509
2018-08-22T19:58:49.921Z,982.550
2018-08-22T20:00:49.942Z,982.556
2018-08-22T20:02:49.900Z,982.533
2018-08-22T20:04:50.140Z,982.531
2018-08-22T20:06:50.237Z,982.521
2018-08-22T20:08:50.236Z,982.510
2018-08-22T20:10:50.262Z,982.509
2018-08-22T20:12:50.217Z,982.534
2018-08-22T20:14:50.015Z,982.546
2018-08-22T20:16:50.563Z,982.555
2018-08-22T20:18:49.779Z,982.583
2018-08-22T20:20:49.784Z,982.590
2018-08-22T20:22:49.782Z,982.590
2018-08-22T20:24:50.042Z,982.609
2018-08-22T20:26:50.181Z,982.611
2018-08-22T20:28:50.131Z,982.628
2018-08-22T20:30:50.116Z,982.647
2018-08-22T20:32:50.059Z,982.648
2018-08-22T20:34:50.381Z,982.656
2018-08-22T20:36:50.402Z,982.640
2018-08-22T20:38:50.419Z,982.630
2018-08-22T20:40:50.434Z,982.640
2018-08-22T20:42:50.648Z,982.647
2018-08-22T20:44:49.951Z,982.652
2018-08-22T20:46:50.125Z,982.639
2018-08-22T20:48:50.153Z,982.627
2018-08-22T20:50:50.159Z,982.609
2018-08-22T20:52:50.102Z,982.594
2018-08-22T20:54:50.100Z,982.579
2018-08-22T20:56:50.267Z,982.568
2018-08-22T20:58:50.191Z,982.572
2018-08-22T21:00:50.277Z,982.588
2018-08-22T21:02:50.301Z,982.594
2018-08-22T21:04:49.665Z,982.611
2018-08-22T21:06:49.895Z,982.616
2018-08-22T21:08:49.894Z,982.631
2018-08-22T21:10:49.884Z,982.620
2018-08-22T21:12:49.852Z,982.620
2018-08-22T21:14:50.162Z,982.589
2018-08-22T21:16:49.793Z,982.597
2018-08-22T21:18:49.799Z,982.605
2018-08-22T21:20:49.827Z,982.603
2018-08-22T21:22:49.825Z,982.629
2018-08-22T21:24:49.975Z,982.642
2018-08-22T21:26:50.322Z,982.635
2018-08-22T21:28:50.257Z,982.614
2018-08-22T21:30:50.388Z,982.604
2018-08-22T21:32:50.392Z,982.590
2018-08-22T21:34:50.113Z,982.593
2018-08-22T21:36:50.227Z,982.594
2018-08-22T21:38:50.266Z,982.586
2018-08-22T21:40:50.299Z,982.582
2018-08-22T21:42:50.255Z,982.579
2018-08-22T21:44:50.298Z,982.569
2018-08-22T21:46:50.425Z,982.571
2018-08-22T21:48:50.414Z,982.579
2018-08-22T21:50:50.535Z,982.579
2018-08-22T21:52:50.474Z,982.575
2018-08-22T21:54:50.587Z,982.576
2018-08-22T21:56:50.086Z,982.562
2018-08-22T21:58:50.066Z,982.559
2018-08-22T22:00:50.051Z,982.540
2018-08-22T22:02:50.095Z,982.523
2018-08-22T22:04:50.392Z,982.507
2018-08-22T22:06:49.728Z,982.501
2018-08-22T22:08:49.649Z,982.523
2018-08-22T22:10:49.657Z,982.518
2018-08-22T22:12:49.647Z,982.526
2018-08-22T22:14:49.628Z,982.517
2018-08-22T22:16:49.884Z,982.521
2018-08-22T22:18:49.825Z,982.524
2018-08-22T22:20:49.851Z,982.518
2018-08-22T22:22:49.839Z,982.518
2018-08-22T22:24:49.921Z,982.524
2018-08-22T22:26:49.978Z,982.505
2018-08-22T22:28:50.012Z,982.495
2018-08-22T22:30:50.033Z,982.497
2018-08-22T22:32:49.958Z,982.512
2018-08-22T22:34:50.234Z,982.571
2018-08-22T22:36:50.340Z,982.605
2018-08-22T22:38:50.334Z,982.574
2018-08-22T22:40:50.287Z,982.556
2018-08-22T22:42:50.334Z,982.546
2018-08-22T22:44:50.358Z,982.546
2018-08-22T22:46:50.591Z,982.579
2018-08-22T22:48:49.629Z,982.577
2018-08-22T22:50:49.883Z,982.582
2018-08-22T22:52:49.915Z,982.562
2018-08-22T22:54:49.886Z,982.588
2018-08-22T22:56:50.015Z,982.609
2018-08-22T22:58:50.024Z,982.603
2018-08-22T23:00:49.968Z,982.571
2018-08-22T23:02:49.899Z,982.558
2018-08-22T23:04:50.193Z,982.544
2018-08-22T23:06:50.344Z,982.534
2018-08-22T23:08:50.336Z,982.526
2018-08-22T23:10:50.402Z,982.517
2018-08-22T23:12:50.400Z,982.501
2018-08-22T23:14:50.395Z,982.501
2018-08-22T23:16:50.613Z,982.502
2018-08-22T23:18:49.738Z,982.500
2018-08-22T23:20:49.740Z,982.507
2018-08-22T23:22:49.769Z,982.492
2018-08-22T23:24:49.820Z,982.486
2018-08-22T23:26:49.945Z,982.473
2018-08-22T23:28:49.992Z,982.486
2018-08-22T23:30:49.978Z,982.485
2018-08-22T23:32:49.993Z,982.495
2018-08-22T23:34:50.314Z,982.497
2018-08-22T23:36:49.633Z,982.487
2018-08-22T23:38:50.597Z,982.471
2018-08-22T23:40:49.609Z,982.457
2018-08-22T23:42:50.600Z,982.446
2018-08-22T23:44:50.555Z,982.450
2018-08-22T23:46:49.788Z,982.453
2018-08-22T23:48:49.774Z,982.448
2018-08-22T23:50:49.991Z,982.442
2018-08-22T23:52:49.971Z,982.442
2018-08-22T23:54:50.593Z,982.445
2018-08-22T23:56:49.789Z,982.451
2018-08-22T23:58:49.819Z,982.457
